Time;durP1;ratioP1;P1;durP2;ratioP2;P2;SDS_P1;SDS_P2;PMS_P1;PMS_P2;Temp;Humidity;BMP_temperature;BMP_pressure;BME280_temperature;BME280_humidity;BME280_pressure;Samples;Min_cycle;Max_cycle;Signal;HPM_P1;HPM_P2
2022/01/11 00:00:35;;;;;;;30.73;17.30;;;1.60;99.90;;;;;;4991117;28;20395;-87
2022/01/11 00:03:03;;;;;;;54.80;17.90;;;1.60;99.90;;;;;;4974688;28;20474;-86
2022/01/11 00:05:45;;;;;;;59.63;16.80;;;1.50;99.90;;;;;;4991072;28;20550;-86
2022/01/11 00:08:13;;;;;;;83.73;19.23;;;1.50;99.90;;;;;;4974818;28;20053;-86
2022/01/11 00:10:50;;;;;;;71.82;18.27;;;1.50;99.90;;;;;;4974812;28;20034;-86
2022/01/11 00:13:17;;;;;;;129.90;22.83;;;1.50;99.90;;;;;;4993551;28;20058;-86
2022/01/11 00:15:43;;;;;;;84.95;19.58;;;1.40;99.90;;;;;;5010362;28;20100;-87
2022/01/11 00:18:09;;;;;;;81.63;18.85;;;1.40;99.90;;;;;;4993799;28;20042;-86
2022/01/11 00:20:37;;;;;;;98.93;22.52;;;1.40;99.90;;;;;;4994198;28;20064;-87
2022/01/11 00:25:34;;;;;;;84.70;19.85;;;1.40;99.90;;;;;;5010424;28;20050;-86
2022/01/11 00:28:00;;;;;;;63.25;18.85;;;1.40;99.90;;;;;;4994325;28;20037;-87
2022/01/11 00:30:33;;;;;;;54.78;18.35;;;1.40;99.90;;;;;;4993824;28;20104;-87
2022/01/11 00:33:01;;;;;;;125.35;21.33;;;1.40;99.90;;;;;;5009949;28;20068;-86
2022/01/11 00:35:38;;;;;;;143.00;20.63;;;1.40;99.90;;;;;;4992979;28;20038;-87
2022/01/11 00:38:05;;;;;;;66.18;17.60;;;1.40;99.90;;;;;;5010237;28;20442;-87
2022/01/11 00:40:30;;;;;;;73.88;18.23;;;1.40;99.90;;;;;;4993677;28;20034;-86
2022/01/11 00:42:59;;;;;;;125.60;19.08;;;1.30;99.90;;;;;;4993822;28;20116;-86
2022/01/11 00:45:27;;;;;;;88.40;19.40;;;1.40;99.90;;;;;;5010329;28;20125;-87
2022/01/11 00:47:54;;;;;;;107.97;21.05;;;1.30;99.90;;;;;;5010353;28;20046;-87
2022/01/11 00:50:20;;;;;;;67.57;17.02;;;1.30;99.90;;;;;;5010499;28;20411;-87
2022/01/11 00:52:46;;;;;;;109.18;19.83;;;1.30;99.90;;;;;;5009825;28;20114;-86
2022/01/11 00:55:12;;;;;;;77.57;19.27;;;1.30;99.90;;;;;;4993106;28;20272;-87
2022/01/11 00:57:38;;;;;;;59.40;16.13;;;1.30;99.90;;;;;;4993605;28;20034;-87
2022/01/11 01:00:08;;;;;;;102.10;19.30;;;1.30;99.90;;;;;;4993518;28;20513;-86
2022/01/11 01:02:34;;;;;;;65.55;17.38;;;1.30;99.90;;;;;;5009756;28;20522;-86
2022/01/11 01:05:00;;;;;;;82.68;17.80;;;1.30;99.90;;;;;;4993208;28;20053;-86
2022/01/11 01:07:26;;;;;;;73.63;17.90;;;1.30;99.90;;;;;;4993314;28;20042;-86
2022/01/11 01:10:01;;;;;;;52.63;16.27;;;1.20;99.90;;;;;;4993582;28;20038;-86
2022/01/11 01:12:27;;;;;;;61.80;16.30;;;1.20;99.90;;;;;;5009582;28;20049;-86
2022/01/11 01:14:52;;;;;;;26.90;15.48;;;1.20;99.90;;;;;;4992505;28;20038;-86
2022/01/11 01:17:18;;;;;;;50.50;16.50;;;1.20;99.90;;;;;;4993607;28;20493;-87
2022/01/11 01:19:44;;;;;;;52.13;15.63;;;1.20;99.90;;;;;;4993318;28;20038;-87
2022/01/11 01:22:09;;;;;;;41.45;16.20;;;1.20;99.90;;;;;;4993739;28;20052;-87
2022/01/11 01:24:35;;;;;;;37.17;16.50;;;1.30;99.90;;;;;;5009400;28;20137;-86
2022/01/11 01:27:01;;;;;;;47.88;15.40;;;1.20;99.90;;;;;;4993728;28;20044;-86
2022/01/11 01:29:27;;;;;;;27.20;14.85;;;1.20;99.90;;;;;;4993685;28;20100;-87
2022/01/11 01:31:53;;;;;;;42.88;15.02;;;1.20;99.90;;;;;;5009804;28;20563;-87
2022/01/11 01:34:18;;;;;;;35.47;15.13;;;1.20;99.90;;;;;;5008625;28;20129;-86
2022/01/11 01:36:44;;;;;;;42.08;16.02;;;1.30;99.90;;;;;;5009668;28;20042;-86
2022/01/11 01:39:10;;;;;;;32.08;16.45;;;1.20;99.90;;;;;;4993333;28;20037;-87
2022/01/11 01:41:35;;;;;;;28.65;16.98;;;1.30;99.90;;;;;;5009620;28;20046;-86
2022/01/11 01:44:02;;;;;;;83.78;18.80;;;1.30;99.90;;;;;;4993424;28;20038;-87
2022/01/11 01:46:29;;;;;;;32.78;16.40;;;1.30;99.90;;;;;;4996098;28;20037;-87
2022/01/11 01:48:58;;;;;;;31.75;15.18;;;1.30;99.90;;;;;;5013187;28;20060;-86
2022/01/11 01:51:23;;;;;;;27.00;16.38;;;1.30;99.90;;;;;;5013349;28;20042;-86
2022/01/11 01:53:50;;;;;;;37.50;16.85;;;1.30;99.90;;;;;;4996359;28;20046;-87
2022/01/11 01:56:18;;;;;;;32.00;15.57;;;1.20;99.90;;;;;;4997097;28;20045;-86
2022/01/11 01:58:44;;;;;;;25.58;14.55;;;1.30;99.90;;;;;;4997512;28;20045;-86
2022/01/11 02:01:13;;;;;;;42.85;16.67;;;1.20;99.90;;;;;;5017663;28;20034;-86
2022/01/11 02:03:40;;;;;;;36.65;15.35;;;1.20;99.90;;;;;;5004127;28;20042;-87
2022/01/11 02:06:08;;;;;;;26.25;15.40;;;1.20;99.90;;;;;;4996593;28;20073;-87
2022/01/11 02:08:34;;;;;;;37.33;15.20;;;1.20;99.90;;;;;;5012634;28;20129;-86
2022/01/11 02:10:59;;;;;;;38.80;15.73;;;1.20;99.90;;;;;;4996188;28;20129;-86
2022/01/11 02:13:25;;;;;;;21.98;14.57;;;1.20;99.90;;;;;;4995305;28;20072;-86
2022/01/11 02:15:51;;;;;;;27.38;14.70;;;1.20;99.90;;;;;;5012153;28;20049;-87
2022/01/11 02:18:21;;;;;;;30.38;15.63;;;1.20;99.90;;;;;;4995930;28;20092;-86
2022/01/11 02:20:49;;;;;;;23.05;13.57;;;1.20;99.90;;;;;;4996182;28;20037;-86
2022/01/11 02:23:16;;;;;;;22.42;14.18;;;1.10;99.90;;;;;;4996392;28;20407;-86
2022/01/11 02:25:56;;;;;;;28.08;15.65;;;1.10;99.90;;;;;;5129700;27;20786;-84
2022/01/11 02:28:24;;;;;;;29.92;16.38;;;1.10;99.90;;;;;;5128195;27;20515;-84
2022/01/11 02:30:52;;;;;;;32.50;15.45;;;1.20;99.90;;;;;;5111227;28;20155;-84
2022/01/11 02:33:32;;;;;;;46.05;16.83;;;1.20;99.90;;;;;;5128025;27;20523;-85
2022/01/11 02:36:04;;;;;;;28.25;15.80;;;1.20;99.90;;;;;;5110988;28;20058;-84
2022/01/11 02:38:30;;;;;;;26.73;15.05;;;1.20;99.90;;;;;;5128222;28;20138;-84
2022/01/11 02:40:56;;;;;;;32.78;15.35;;;1.20;99.90;;;;;;5128097;28;20067;-84
2022/01/11 02:43:22;;;;;;;25.65;16.10;;;1.20;99.90;;;;;;5110901;28;20035;-84
2022/01/11 02:45:47;;;;;;;73.78;16.58;;;1.20;99.90;;;;;;5110920;28;20088;-84
2022/01/11 02:48:13;;;;;;;32.30;16.02;;;1.20;99.90;;;;;;5128170;28;20035;-84
2022/01/11 02:50:38;;;;;;;36.42;15.95;;;1.20;99.90;;;;;;5128374;27;20497;-84
2022/01/11 02:53:04;;;;;;;44.85;16.20;;;1.20;99.90;;;;;;5127824;27;20400;-84
2022/01/11 02:55:33;;;;;;;30.77;14.95;;;1.10;99.90;;;;;;5107094;28;20530;-84
2022/01/11 02:57:59;;;;;;;29.77;14.82;;;1.10;99.90;;;;;;5109016;28;20062;-83
2022/01/11 03:00:24;;;;;;;43.75;15.98;;;1.10;99.90;;;;;;5110994;28;20500;-83
2022/01/11 03:02:51;;;;;;;42.63;15.18;;;1.10;99.90;;;;;;5127662;28;20047;-83
2022/01/11 03:05:17;;;;;;;29.13;14.25;;;1.10;99.90;;;;;;5127480;28;20048;-83
2022/01/11 03:07:43;;;;;;;30.80;14.23;;;1.10;99.90;;;;;;5110569;28;20040;-84
2022/01/11 03:12:43;;;;;;;24.88;15.02;;;1.00;99.90;;;;;;5126084;27;20060;-84
2022/01/11 03:15:11;;;;;;;32.50;15.45;;;1.00;99.90;;;;;;5110207;28;20038;-85
2022/01/11 03:17:37;;;;;;;42.60;16.40;;;1.00;99.90;;;;;;5127647;28;20065;-84
2022/01/11 03:20:04;;;;;;;35.83;16.63;;;1.00;99.90;;;;;;5110205;27;20035;-84
2022/01/11 03:22:30;;;;;;;37.63;16.00;;;1.00;99.90;;;;;;5127859;27;20046;-84
2022/01/11 03:24:55;;;;;;;32.30;16.20;;;0.90;99.90;;;;;;5109759;28;20511;-84
2022/01/11 03:27:21;;;;;;;29.10;15.68;;;0.90;99.90;;;;;;5127568;27;20039;-84
2022/01/11 03:29:46;;;;;;;44.90;16.63;;;0.90;99.90;;;;;;5110385;28;20035;-84
2022/01/11 03:32:17;;;;;;;42.03;17.08;;;0.90;99.90;;;;;;5109629;28;20043;-84
2022/01/11 03:34:45;;;;;;;28.65;14.75;;;0.90;99.90;;;;;;5109511;28;20079;-84
2022/01/11 03:37:16;;;;;;;44.25;17.20;;;0.80;99.90;;;;;;5113832;28;20526;-84
2022/01/11 03:39:42;;;;;;;29.23;15.52;;;0.80;99.90;;;;;;5096727;28;20464;-84
2022/01/11 03:42:08;;;;;;;34.03;16.80;;;0.80;99.90;;;;;;5113301;28;20035;-84
2022/01/11 03:44:34;;;;;;;25.45;15.00;;;0.80;99.90;;;;;;5112865;28;20182;-84
2022/01/11 03:47:00;;;;;;;27.20;15.25;;;0.80;99.90;;;;;;5096146;28;20054;-84
2022/01/11 03:49:26;;;;;;;26.08;15.98;;;0.80;99.90;;;;;;5113277;28;20119;-84
2022/01/11 03:51:52;;;;;;;28.02;14.80;;;0.80;99.90;;;;;;5096131;28;20185;-84
2022/01/11 03:54:24;;;;;;;33.20;16.38;;;0.80;99.90;;;;;;5095849;28;20050;-84
2022/01/11 03:56:50;;;;;;;26.08;15.25;;;0.80;99.90;;;;;;5095978;28;20130;-84
2022/01/11 03:59:17;;;;;;;35.30;16.58;;;0.80;99.90;;;;;;5112814;28;20048;-84
2022/01/11 04:01:42;;;;;;;28.88;16.35;;;0.80;99.90;;;;;;5113000;28;20043;-84
2022/01/11 04:04:09;;;;;;;47.25;17.55;;;0.70;99.90;;;;;;5112573;28;20035;-84
2022/01/11 04:06:36;;;;;;;43.13;17.73;;;0.80;99.90;;;;;;5096027;28;20042;-85
2022/01/11 04:09:04;;;;;;;30.85;16.40;;;0.80;99.90;;;;;;5096075;28;20084;-83
2022/01/11 04:11:30;;;;;;;34.88;16.15;;;0.80;99.90;;;;;;5095653;28;20084;-84
2022/01/11 04:13:55;;;;;;;27.60;16.98;;;0.70;99.90;;;;;;5111297;28;20035;-84
2022/01/11 04:16:21;;;;;;;28.85;16.85;;;0.80;99.90;;;;;;5112670;28;20127;-84
2022/01/11 04:18:46;;;;;;;32.00;18.83;;;0.80;99.90;;;;;;5112286;28;20046;-84
2022/01/11 04:21:12;;;;;;;34.70;17.60;;;0.80;99.90;;;;;;5095665;28;20070;-85
2022/01/11 04:23:39;;;;;;;35.22;17.60;;;0.80;99.90;;;;;;5112237;28;20047;-84
2022/01/11 04:26:04;;;;;;;33.92;18.10;;;0.80;99.90;;;;;;5095588;28;20082;-84
2022/01/11 04:28:30;;;;;;;36.75;18.83;;;0.80;99.90;;;;;;5112237;28;20071;-84
2022/01/11 04:31:00;;;;;;;33.10;18.23;;;0.70;99.90;;;;;;5096117;28;20122;-84
2022/01/11 04:33:31;;;;;;;33.72;19.13;;;0.80;99.90;;;;;;5096352;28;20434;-85
2022/01/11 04:35:59;;;;;;;31.77;18.55;;;0.80;99.90;;;;;;5115815;28;20068;-84
2022/01/11 04:38:28;;;;;;;36.58;19.65;;;0.80;99.90;;;;;;5118762;28;20047;-84
2022/01/11 04:40:54;;;;;;;34.08;20.00;;;0.80;99.90;;;;;;5111906;28;20040;-84
2022/01/11 04:43:21;;;;;;;34.83;20.13;;;0.80;99.90;;;;;;5111383;28;20032;-84
2022/01/11 04:45:49;;;;;;;36.75;20.15;;;0.80;99.90;;;;;;5112124;28;20055;-84
2022/01/11 04:48:15;;;;;;;36.78;19.63;;;0.80;99.90;;;;;;5111144;28;20073;-84
2022/01/11 04:50:42;;;;;;;39.85;23.05;;;0.80;99.90;;;;;;5094995;28;20118;-84
2022/01/11 04:53:08;;;;;;;39.50;22.20;;;0.80;99.90;;;;;;5094701;28;20442;-84
2022/01/11 04:55:34;;;;;;;41.72;22.02;;;0.80;99.90;;;;;;5094815;28;20092;-84
2022/01/11 04:57:59;;;;;;;39.70;23.17;;;0.80;99.90;;;;;;5094595;28;20039;-84
2022/01/11 05:00:26;;;;;;;45.42;23.50;;;0.80;99.90;;;;;;5111831;28;20036;-84
2022/01/11 05:02:52;;;;;;;45.58;24.25;;;0.80;99.90;;;;;;5094762;28;20046;-84
2022/01/11 05:05:17;;;;;;;40.40;21.92;;;0.80;99.90;;;;;;5111400;28;20040;-85
2022/01/11 05:07:45;;;;;;;44.17;24.88;;;0.90;99.90;;;;;;5094435;28;20132;-84
2022/01/11 05:10:12;;;;;;;44.40;23.48;;;0.90;99.90;;;;;;5094624;28;20397;-85
2022/01/11 05:12:38;;;;;;;52.10;22.83;;;0.90;99.90;;;;;;5111439;28;20123;-84
2022/01/11 05:15:09;;;;;;;45.42;23.50;;;0.90;99.90;;;;;;5093127;28;20051;-84
2022/01/11 05:17:36;;;;;;;49.97;24.95;;;0.90;99.90;;;;;;5111631;28;20078;-84
2022/01/11 05:20:02;;;;;;;47.40;25.00;;;0.90;99.90;;;;;;5111382;28;20613;-84
2022/01/11 05:22:28;;;;;;;50.25;25.80;;;0.90;99.90;;;;;;5111269;28;20093;-85
2022/01/11 05:24:53;;;;;;;51.17;25.33;;;1.00;99.90;;;;;;5093797;28;20040;-84
2022/01/11 05:27:19;;;;;;;47.33;24.25;;;1.00;99.90;;;;;;5111475;28;20126;-84
2022/01/11 05:29:45;;;;;;;52.05;26.77;;;1.00;99.90;;;;;;5094132;28;20492;-85
2022/01/11 05:32:10;;;;;;;54.72;26.13;;;1.00;99.90;;;;;;5110952;28;20123;-84
2022/01/11 05:34:36;;;;;;;54.60;26.77;;;1.00;99.90;;;;;;5110639;28;20088;-84
2022/01/11 05:37:03;;;;;;;56.38;26.23;;;1.00;99.90;;;;;;5111048;28;20051;-84
2022/01/11 05:39:28;;;;;;;53.42;25.70;;;1.00;99.90;;;;;;5111104;28;20047;-84
2022/01/11 05:41:54;;;;;;;56.95;28.25;;;1.00;99.90;;;;;;5111055;28;20092;-84
2022/01/11 05:44:20;;;;;;;52.00;25.73;;;1.00;99.90;;;;;;5093939;28;20046;-84
2022/01/11 05:46:46;;;;;;;58.28;26.15;;;1.00;99.90;;;;;;5093667;28;20036;-85
2022/01/11 05:49:11;;;;;;;51.63;24.88;;;1.00;99.90;;;;;;5110981;28;20042;-84
2022/01/11 05:51:37;;;;;;;55.58;26.42;;;1.00;99.90;;;;;;5093714;28;20042;-85
2022/01/11 05:54:03;;;;;;;56.25;27.70;;;1.00;99.90;;;;;;5110808;28;20039;-87
2022/01/11 05:56:28;;;;;;;55.72;27.63;;;1.00;99.90;;;;;;5093602;28;20509;-86
2022/01/11 05:58:54;;;;;;;57.75;27.15;;;1.10;99.90;;;;;;5110640;28;20125;-87
2022/01/11 06:01:20;;;;;;;54.22;27.17;;;1.10;99.90;;;;;;5110915;28;20047;-86
2022/01/11 06:03:46;;;;;;;58.03;26.83;;;1.00;99.90;;;;;;5093537;28;20489;-86
2022/01/11 06:06:11;;;;;;;52.50;27.73;;;1.10;99.90;;;;;;5093730;28;20122;-86
2022/01/11 06:08:37;;;;;;;62.97;28.42;;;1.10;99.90;;;;;;5110550;28;20067;-86
2022/01/11 06:11:03;;;;;;;64.70;30.92;;;1.10;99.90;;;;;;5093270;28;20047;-86
2022/01/11 06:13:29;;;;;;;60.67;29.27;;;1.10;99.90;;;;;;5093344;28;20027;-87
2022/01/11 06:15:55;;;;;;;66.18;30.10;;;1.10;99.90;;;;;;5110166;28;20099;-87
2022/01/11 06:18:20;;;;;;;53.28;27.65;;;1.10;99.90;;;;;;5093383;28;20036;-86
2022/01/11 06:20:46;;;;;;;60.15;28.55;;;1.10;99.90;;;;;;5110374;28;20078;-86
2022/01/11 06:23:11;;;;;;;55.47;26.75;;;1.00;99.90;;;;;;5110437;28;20076;-86
2022/01/11 06:25:37;;;;;;;59.10;26.58;;;1.10;99.90;;;;;;5110377;28;20039;-86
2022/01/11 06:28:03;;;;;;;54.10;28.33;;;1.00;99.90;;;;;;5093436;28;20032;-86
2022/01/11 06:30:29;;;;;;;48.63;22.98;;;1.00;99.90;;;;;;5110144;28;20115;-86
2022/01/11 06:32:56;;;;;;;52.67;25.40;;;1.10;99.90;;;;;;5110221;28;20127;-86
2022/01/11 06:35:24;;;;;;;49.28;24.80;;;1.00;99.90;;;;;;5109816;28;20097;-87
2022/01/11 06:37:50;;;;;;;46.13;25.58;;;1.00;99.90;;;;;;5093322;28;20046;-86
2022/01/11 06:40:18;;;;;;;51.33;25.85;;;1.00;99.90;;;;;;5093456;28;20042;-86
2022/01/11 06:42:45;;;;;;;45.63;24.38;;;1.00;99.90;;;;;;5093210;28;20071;-86
2022/01/11 06:45:11;;;;;;;45.72;23.75;;;1.00;99.90;;;;;;5093208;28;20194;-86
2022/01/11 06:47:37;;;;;;;42.70;23.25;;;1.00;99.90;;;;;;5110205;28;20488;-86
2022/01/11 06:50:03;;;;;;;42.72;24.02;;;1.00;99.90;;;;;;5110277;28;20035;-87
2022/01/11 06:52:29;;;;;;;47.40;25.48;;;1.00;99.90;;;;;;5110289;28;20404;-86
2022/01/11 06:54:54;;;;;;;43.97;23.83;;;1.00;99.90;;;;;;5093159;28;20438;-86
2022/01/11 06:57:20;;;;;;;44.72;24.45;;;1.00;99.90;;;;;;5092826;28;20444;-87
2022/01/11 06:59:46;;;;;;;47.63;25.92;;;1.00;99.90;;;;;;5093228;28;20046;-86
2022/01/11 07:02:11;;;;;;;44.00;23.63;;;1.00;99.90;;;;;;5093228;28;20126;-86
2022/01/11 07:04:37;;;;;;;42.13;23.88;;;1.00;99.90;;;;;;5092690;28;20036;-86
2022/01/11 07:07:05;;;;;;;46.55;23.40;;;0.90;99.90;;;;;;5110561;28;20039;-86
2022/01/11 07:09:31;;;;;;;44.47;23.65;;;0.90;99.90;;;;;;5093866;28;20035;-86
2022/01/11 07:11:56;;;;;;;45.60;24.92;;;0.90;99.90;;;;;;5098266;28;20035;-86
2022/01/11 07:14:22;;;;;;;41.97;24.45;;;0.90;99.90;;;;;;5116421;28;20036;-87
2022/01/11 07:16:48;;;;;;;39.70;23.75;;;0.90;99.90;;;;;;5096829;28;20077;-87
2022/01/11 07:19:18;;;;;;;42.00;23.55;;;0.90;99.90;;;;;;5096342;28;20040;-86
2022/01/11 07:21:44;;;;;;;45.58;26.20;;;0.90;99.90;;;;;;5113622;28;20046;-86
2022/01/11 07:24:14;;;;;;;37.47;21.73;;;0.90;99.90;;;;;;5114765;28;20483;-86
2022/01/11 07:26:41;;;;;;;38.03;21.02;;;0.90;99.90;;;;;;5096308;28;20035;-86
2022/01/11 07:29:07;;;;;;;39.42;20.58;;;0.90;99.90;;;;;;5113358;28;20131;-86
2022/01/11 07:31:38;;;;;;;42.28;20.58;;;0.90;99.90;;;;;;5096633;28;20089;-86
2022/01/11 07:34:05;;;;;;;34.63;19.30;;;0.90;99.90;;;;;;5096170;28;20092;-86
2022/01/11 07:36:30;;;;;;;33.50;19.85;;;0.90;99.90;;;;;;5096517;28;20039;-87
2022/01/11 07:38:56;;;;;;;31.30;19.30;;;0.90;99.90;;;;;;5113688;28;20489;-86
2022/01/11 07:41:22;;;;;;;31.92;19.67;;;0.90;99.90;;;;;;5096480;28;20512;-85
2022/01/11 07:43:47;;;;;;;29.90;18.00;;;0.90;99.90;;;;;;5113092;28;20055;-85
2022/01/11 07:46:13;;;;;;;32.63;17.75;;;0.90;99.90;;;;;;5113763;28;20055;-86
2022/01/11 07:48:39;;;;;;;32.38;18.40;;;1.00;99.90;;;;;;5110928;28;20119;-86
2022/01/11 07:51:05;;;;;;;31.67;17.77;;;1.00;99.90;;;;;;5112340;28;20478;-86
2022/01/11 07:53:30;;;;;;;29.95;17.45;;;1.00;99.90;;;;;;5112633;28;20557;-86
2022/01/11 07:55:56;;;;;;;29.38;15.75;;;1.00;99.90;;;;;;5112847;28;20040;-85
2022/01/11 07:58:22;;;;;;;30.27;15.52;;;1.00;99.90;;;;;;5095691;28;20096;-85
2022/01/11 08:00:48;;;;;;;32.33;16.52;;;1.00;99.90;;;;;;5112436;28;20413;-85
2022/01/11 08:03:13;;;;;;;32.78;17.20;;;1.00;99.90;;;;;;5112132;28;20421;-85
2022/01/11 08:05:39;;;;;;;29.63;17.02;;;1.00;99.90;;;;;;5111771;28;20730;-85
2022/01/11 08:08:05;;;;;;;30.33;16.60;;;1.00;99.90;;;;;;5112566;28;20067;-85
2022/01/11 08:10:31;;;;;;;29.75;16.25;;;1.00;99.90;;;;;;5112124;28;20510;-85
2022/01/11 08:12:57;;;;;;;30.85;15.82;;;1.00;99.90;;;;;;5112043;28;20043;-85
2022/01/11 08:15:23;;;;;;;29.75;15.88;;;1.00;99.90;;;;;;5111628;28;20043;-85
2022/01/11 08:17:49;;;;;;;29.13;16.55;;;1.00;99.90;;;;;;5110396;28;20049;-83
2022/01/11 08:20:15;;;;;;;27.63;15.15;;;1.10;99.90;;;;;;5095965;28;20039;-85
2022/01/11 08:22:41;;;;;;;29.48;15.82;;;1.00;99.90;;;;;;5112227;28;20089;-85
2022/01/11 08:25:07;;;;;;;26.67;15.63;;;1.10;99.90;;;;;;5095217;28;20668;-85
2022/01/11 08:27:35;;;;;;;29.05;15.65;;;1.10;99.90;;;;;;5112391;28;20039;-85
2022/01/11 08:30:05;;;;;;;25.77;15.73;;;1.10;99.90;;;;;;5095597;28;20035;-85
2022/01/11 08:32:30;;;;;;;30.88;16.52;;;1.20;99.90;;;;;;5092994;28;20032;-85
2022/01/11 08:34:56;;;;;;;28.00;15.02;;;1.20;99.90;;;;;;5094489;28;20084;-86
2022/01/11 08:37:21;;;;;;;33.58;17.60;;;1.20;99.90;;;;;;5111756;28;20096;-86
2022/01/11 08:39:47;;;;;;;36.42;15.55;;;1.30;99.90;;;;;;5111415;28;20487;-85
2022/01/11 08:42:13;;;;;;;29.30;15.65;;;1.30;99.90;;;;;;5111684;28;20040;-86
2022/01/11 08:44:47;;;;;;;31.85;16.42;;;1.40;99.90;;;;;;5094406;28;20476;-86
2022/01/11 08:47:14;;;;;;;33.13;17.10;;;1.40;99.90;;;;;;5095035;28;20039;-86
2022/01/11 08:49:40;;;;;;;29.17;15.82;;;1.40;99.90;;;;;;5111916;28;20084;-86
2022/01/11 08:52:06;;;;;;;29.30;15.65;;;1.40;99.90;;;;;;5094899;28;20039;-86
2022/01/11 08:54:32;;;;;;;29.52;16.13;;;1.50;99.90;;;;;;5111848;28;20492;-86
2022/01/11 08:56:59;;;;;;;27.50;15.55;;;1.50;99.90;;;;;;5111715;28;20051;-86
2022/01/11 08:59:28;;;;;;;30.00;16.67;;;1.50;99.90;;;;;;5112127;28;20100;-86
2022/01/11 09:02:00;;;;;;;28.88;16.73;;;1.60;99.90;;;;;;5094983;28;20496;-86
2022/01/11 09:04:27;;;;;;;29.05;16.85;;;1.60;99.90;;;;;;5111497;28;20055;-86
2022/01/11 09:06:58;;;;;;;30.00;16.45;;;1.60;99.90;;;;;;5111379;28;20548;-87
2022/01/11 09:09:24;;;;;;;27.67;14.98;;;1.60;99.90;;;;;;5110140;28;20043;-86
2022/01/11 09:11:51;;;;;;;26.27;15.70;;;1.70;99.90;;;;;;5111276;28;20036;-85
2022/01/11 09:14:18;;;;;;;27.35;16.45;;;1.70;99.90;;;;;;5110608;28;20659;-86
2022/01/11 09:16:44;;;;;;;27.90;16.02;;;1.70;99.90;;;;;;5111122;28;20044;-86
2022/01/11 09:19:14;;;;;;;31.25;16.25;;;1.70;99.90;;;;;;5110971;28;20039;-86
2022/01/11 09:21:40;;;;;;;26.73;15.52;;;1.80;99.90;;;;;;5111294;28;20039;-86
2022/01/11 09:24:06;;;;;;;27.73;16.52;;;1.80;99.90;;;;;;5109748;28;20104;-86
2022/01/11 09:26:32;;;;;;;26.67;15.60;;;1.90;99.90;;;;;;5093952;28;20043;-86
2022/01/11 09:28:58;;;;;;;30.23;15.70;;;1.90;99.90;;;;;;5094363;28;20487;-86
2022/01/11 09:31:24;;;;;;;25.40;15.25;;;2.00;99.90;;;;;;5110595;28;20047;-85
2022/01/11 09:33:50;;;;;;;28.08;15.60;;;2.00;99.90;;;;;;5109919;28;20110;-86
2022/01/11 09:36:16;;;;;;;25.10;15.68;;;2.10;99.90;;;;;;5093089;28;20036;-86
2022/01/11 09:38:42;;;;;;;29.00;15.43;;;2.20;99.90;;;;;;5110043;28;20093;-86
2022/01/11 09:41:08;;;;;;;27.60;15.98;;;2.30;99.90;;;;;;5109619;28;20043;-85
2022/01/11 09:43:34;;;;;;;28.60;15.23;;;2.30;99.90;;;;;;5108836;28;20536;-85
2022/01/11 09:45:59;;;;;;;27.88;16.33;;;2.30;99.90;;;;;;5110906;28;20043;-85
2022/01/11 09:48:31;;;;;;;25.33;14.57;;;2.30;99.90;;;;;;5091925;28;20024;-85
2022/01/11 09:50:57;;;;;;;27.55;15.68;;;2.40;99.90;;;;;;5094739;28;20039;-85
2022/01/11 09:53:23;;;;;;;31.08;16.63;;;2.40;99.90;;;;;;5095286;28;20046;-85
2022/01/11 09:55:49;;;;;;;26.08;15.60;;;2.40;99.90;;;;;;5114571;28;20047;-86
2022/01/11 09:58:15;;;;;;;26.77;15.10;;;2.50;99.90;;;;;;5110980;28;20120;-86
2022/01/11 10:00:41;;;;;;;28.15;14.57;;;2.50;99.90;;;;;;5110289;28;20051;-86
2022/01/11 10:03:08;;;;;;;27.15;15.35;;;2.50;99.90;;;;;;5088308;28;20096;-86
2022/01/11 10:05:36;;;;;;;25.45;14.70;;;2.50;99.90;;;;;;5101543;28;20046;-86
2022/01/11 10:08:18;;;;;;;25.17;14.85;;;2.60;99.90;;;;;;5083868;28;20623;-86
2022/01/11 10:10:45;;;;;;;26.67;15.35;;;2.60;99.90;;;;;;5090083;28;20040;-86
2022/01/11 10:13:32;;;;;;;23.98;14.05;;;2.60;99.90;;;;;;5075208;28;20050;-86
2022/01/11 10:16:27;;;;;;;27.55;15.13;;;2.60;99.90;;;;;;5093135;28;20046;-86
2022/01/11 10:18:55;;;;;;;26.98;14.48;;;2.60;99.90;;;;;;5110664;28;20140;-86
2022/01/11 10:21:51;;;;;;;24.33;14.15;;;2.60;99.90;;;;;;5093874;28;20534;-86
2022/01/11 10:24:20;;;;;;;23.30;14.43;;;2.60;99.90;;;;;;5092921;28;20160;-86
2022/01/11 10:26:46;;;;;;;25.45;16.02;;;2.70;99.90;;;;;;5093258;28;20035;-86
2022/01/11 10:29:40;;;;;;;26.23;14.65;;;2.70;99.90;;;;;;5110523;28;20051;-86
2022/01/11 10:32:11;;;;;;;23.92;14.85;;;2.80;99.90;;;;;;5109941;28;20035;-86
2022/01/11 10:34:38;;;;;;;29.70;16.30;;;2.80;99.90;;;;;;5109576;28;20044;-85
2022/01/11 10:37:05;;;;;;;25.90;14.95;;;2.90;99.90;;;;;;5092998;28;20515;-86
2022/01/11 10:39:35;;;;;;;24.60;13.63;;;2.90;99.90;;;;;;5109968;28;20489;-86
2022/01/11 10:42:01;;;;;;;25.60;16.15;;;2.80;99.90;;;;;;5110430;28;20074;-85
2022/01/11 10:44:43;;;;;;;22.98;13.60;;;2.80;99.90;;;;;;5109496;28;20629;-86
2022/01/11 10:47:09;;;;;;;25.63;14.30;;;2.90;99.90;;;;;;5096086;28;20042;-85
2022/01/11 10:49:36;;;;;;;24.20;14.32;;;2.90;99.90;;;;;;5097501;28;20031;-86
2022/01/11 10:52:19;;;;;;;24.58;14.15;;;2.90;99.90;;;;;;5096834;28;20031;-86
2022/01/11 10:54:45;;;;;;;26.67;14.60;;;2.90;99.90;;;;;;5113884;28;20039;-85
2022/01/11 10:57:32;;;;;;;23.38;14.00;;;3.00;99.90;;;;;;5096632;28;20416;-85
2022/01/11 11:00:23;;;;;;;25.88;14.80;;;3.00;99.90;;;;;;5114291;28;20388;-85
2022/01/11 11:02:53;;;;;;;22.40;14.45;;;3.00;99.90;;;;;;5096216;28;20043;-85
2022/01/11 11:05:23;;;;;;;24.42;14.65;;;3.10;99.90;;;;;;5113568;28;20039;-86
2022/01/11 11:08:04;;;;;;;24.38;14.27;;;3.10;99.90;;;;;;5096295;28;20044;-86
2022/01/11 11:10:33;;;;;;;26.35;14.18;;;3.20;99.90;;;;;;5096980;28;20040;-85
2022/01/11 11:12:59;;;;;;;26.05;15.32;;;3.30;99.90;;;;;;5112056;28;20089;-85
2022/01/11 11:15:35;;;;;;;26.10;14.45;;;3.40;99.90;;;;;;5096620;28;20071;-85
2022/01/11 11:18:03;;;;;;;25.08;15.02;;;3.50;99.90;;;;;;5113371;28;20067;-86
2022/01/11 11:20:31;;;;;;;23.70;14.23;;;3.60;99.90;;;;;;5110626;28;20047;-86
2022/01/11 11:22:58;;;;;;;29.23;16.27;;;3.60;99.90;;;;;;5113576;28;20403;-86
2022/01/11 11:25:24;;;;;;;25.08;14.48;;;3.70;99.90;;;;;;5112857;28;20079;-86
2022/01/11 11:27:50;;;;;;;25.75;14.85;;;3.80;99.90;;;;;;5096682;28;20063;-86
2022/01/11 11:30:16;;;;;;;24.42;14.57;;;3.80;99.90;;;;;;5113708;28;20512;-85
2022/01/11 11:32:42;;;;;;;27.42;15.77;;;3.90;99.90;;;;;;5112882;28;20036;-86
2022/01/11 11:35:08;;;;;;;26.75;14.73;;;4.00;99.90;;;;;;5096077;28;20041;-86
2022/01/11 11:37:39;;;;;;;27.00;15.52;;;4.00;99.90;;;;;;5112850;28;20035;-85
2022/01/11 11:40:08;;;;;;;23.20;14.73;;;4.20;99.90;;;;;;5096142;28;20043;-85
2022/01/11 11:42:34;;;;;;;26.23;14.93;;;4.20;99.90;;;;;;5096153;28;20050;-86
2022/01/11 11:45:21;;;;;;;25.02;14.68;;;4.20;99.90;;;;;;5112886;28;20043;-86
2022/01/11 11:47:47;;;;;;;27.58;14.73;;;4.20;99.90;;;;;;5096427;28;20088;-86
2022/01/11 11:50:19;;;;;;;27.85;15.80;;;4.30;99.90;;;;;;5112966;28;20063;-86
2022/01/11 11:52:48;;;;;;;23.90;12.77;;;4.30;99.90;;;;;;5095906;28;20077;-86
2022/01/11 11:55:28;;;;;;;26.60;15.85;;;4.40;99.90;;;;;;5112015;28;20043;-86
2022/01/11 11:58:00;;;;;;;23.85;13.82;;;4.50;99.90;;;;;;5095545;28;20050;-85
2022/01/11 12:00:30;;;;;;;24.65;14.48;;;4.60;99.90;;;;;;5112908;28;20100;-85
2022/01/11 12:03:16;;;;;;;26.02;13.73;;;4.60;99.90;;;;;;5113599;28;20044;-85
2022/01/11 12:05:47;;;;;;;26.00;14.43;;;4.70;99.90;;;;;;5112383;28;20048;-86
2022/01/11 12:08:58;;;;;;;27.73;15.45;;;5.00;99.90;;;;;;5096103;28;20040;-86
2022/01/11 12:11:42;;;;;;;27.45;15.45;;;5.40;99.90;;;;;;5017384;28;20041;-85
2022/01/11 12:14:31;;;;;;;26.98;16.02;;;6.00;99.90;;;;;;5110742;28;20054;-86
2022/01/11 12:17:22;;;;;;;25.17;14.52;;;6.80;99.90;;;;;;5112795;28;20039;-87
2022/01/11 12:19:53;;;;;;;25.20;13.95;;;7.30;99.90;;;;;;5112696;28;20036;-87
2022/01/11 12:22:50;;;;;;;25.75;14.50;;;7.70;99.90;;;;;;5093589;28;20065;-86
2022/01/11 12:25:32;;;;;;;28.95;15.07;;;8.40;99.90;;;;;;5104894;28;20047;-86
2022/01/11 12:28:00;;;;;;;26.60;15.55;;;9.00;99.90;;;;;;5081512;28;20071;-86
2022/01/11 12:30:26;;;;;;;25.10;15.70;;;9.60;99.10;;;;;;5102144;28;20063;-87
2022/01/11 12:33:08;;;;;;;23.27;16.05;;;10.50;98.40;;;;;;5080598;28;20036;-86
2022/01/11 12:35:48;;;;;;;24.92;16.45;;;11.70;96.40;;;;;;5093386;28;20052;-86
2022/01/11 12:38:14;;;;;;;22.17;16.15;;;12.50;91.60;;;;;;5075219;28;20094;-87
2022/01/11 12:40:40;;;;;;;23.52;15.85;;;13.20;86.80;;;;;;5074711;28;20044;-87
2022/01/11 12:43:18;;;;;;;22.60;16.08;;;13.50;80.20;;;;;;5092141;28;20076;-87
2022/01/11 12:46:05;;;;;;;22.38;15.48;;;13.60;76.50;;;;;;5075120;28;20036;-86